Grass Valley, California
Current Conditions -  °F | °C
As of 6:40 AM on Thursday 30 Oct 2014 (Local Time) from KGOO Reporting Station
Clear Clear  
Wind Chill: 64°   Ceiling: Unl
Heat Index: 64°   Visibility: 10mi
Dew Point: 32°   Wind: 3mph
Humidity: 30%   Direction: 120°ESE
Pressure: 30.04"   Gusts: NA
Location:  39.22°N, 121.06°W
Report Text: KGOO 301340Z AUTO 12003KT 10SM CLR 18/00 A3004 RMK AO1
Loading
Personal Weather Stations






























Interactive Weather Map New forecast layout! Learn more

10-Day Weather Forecast

Advertisements
Track Severe Weather on mobile